createdAt,value
2023-02-22T00:03:00.508Z,8.63
2023-02-22T00:06:05.301Z,8.65
2023-02-22T00:09:09.507Z,8.58
2023-02-22T00:12:12.131Z,8.59
2023-02-22T00:15:16.025Z,8.61
2023-02-22T00:18:19.481Z,8.58
2023-02-22T00:21:22.761Z,8.56
2023-02-22T00:24:25.463Z,8.62
2023-02-22T00:27:28.038Z,8.59
2023-02-22T00:30:32.184Z,8.61
2023-02-22T00:33:36.806Z,8.53
2023-02-22T00:36:39.426Z,8.59
2023-02-22T00:39:42.000Z,8.55
2023-02-22T00:42:45.983Z,8.54
2023-02-22T00:45:49.497Z,8.46
2023-02-22T00:48:53.588Z,8.43
2023-02-22T00:51:56.195Z,8.42
2023-02-22T00:55:00.695Z,8.32
2023-02-22T00:58:04.009Z,8.24
2023-02-22T01:01:06.659Z,8.25
2023-02-22T01:04:09.728Z,8.12
2023-02-22T01:07:14.523Z,8.10
2023-02-22T01:10:21.939Z,8.06
2023-02-22T01:13:24.777Z,7.95
2023-02-22T01:16:28.202Z,7.90
2023-02-22T01:19:32.465Z,7.83
2023-02-22T01:22:34.982Z,7.87
2023-02-22T01:25:37.594Z,7.78
2023-02-22T01:28:40.159Z,7.68
2023-02-22T01:31:44.357Z,7.68
2023-02-22T01:34:47.692Z,7.66
2023-02-22T01:37:50.277Z,7.65
2023-02-22T01:40:53.912Z,7.56
2023-02-22T01:43:58.916Z,7.54
2023-02-22T01:47:04.308Z,7.54
2023-02-22T01:50:07.264Z,7.44
2023-02-22T01:53:11.487Z,7.46
2023-02-22T01:56:15.162Z,7.41
2023-02-22T01:59:18.456Z,7.36
2023-02-22T02:02:27.393Z,7.28
2023-02-22T02:05:34.757Z,7.28
2023-02-22T02:08:42.657Z,7.27
2023-02-22T02:11:46.037Z,7.38
2023-02-22T02:14:48.921Z,7.35
2023-02-22T02:17:53.644Z,7.36
2023-02-22T02:20:59.400Z,7.40
2023-02-22T02:24:11.108Z,7.47
2023-02-22T02:27:36.759Z,7.40
2023-02-22T02:31:19.574Z,7.34
2023-02-22T02:34:28.746Z,7.40
2023-02-22T02:37:34.115Z,7.36
2023-02-22T02:40:47.810Z,7.33
2023-02-22T02:44:09.158Z,7.35
2023-02-22T02:47:24.486Z,7.37
2023-02-22T02:50:31.813Z,7.38
2023-02-22T02:53:38.830Z,7.35
2023-02-22T02:56:44.445Z,7.44
2023-02-22T02:59:48.580Z,7.38
2023-02-22T03:03:17.242Z,7.38
2023-02-22T03:06:30.204Z,7.43
2023-02-22T03:09:46.536Z,7.42
2023-02-22T03:12:55.289Z,7.39
2023-02-22T03:16:03.064Z,7.40
2023-02-22T03:19:13.788Z,7.36
2023-02-22T03:22:25.158Z,7.38
2023-02-22T03:25:50.586Z,7.38
2023-02-22T03:28:56.123Z,7.43
2023-02-22T03:32:01.804Z,7.40
2023-02-22T03:35:17.331Z,7.35
2023-02-22T03:38:20.490Z,7.33
2023-02-22T03:41:28.322Z,7.33
2023-02-22T03:44:33.018Z,7.12
2023-02-22T03:47:43.297Z,7.04
2023-02-22T03:50:46.090Z,6.97
2023-02-22T03:53:48.706Z,6.92
2023-02-22T03:56:59.266Z,6.88
2023-02-22T04:00:06.788Z,6.89
2023-02-22T04:03:15.438Z,6.82
2023-02-22T04:06:18.198Z,6.79
2023-02-22T04:09:22.377Z,6.83
2023-02-22T04:12:24.981Z,6.83
2023-02-22T04:15:38.222Z,6.90
2023-02-22T04:18:43.891Z,6.87
2023-02-22T04:21:48.306Z,6.87
2023-02-22T04:24:57.182Z,6.89
2023-02-22T04:27:59.716Z,6.88
2023-02-22T04:31:15.197Z,6.82
2023-02-22T04:34:18.288Z,6.74
2023-02-22T04:37:21.169Z,6.76
2023-02-22T04:40:24.440Z,6.74
2023-02-22T04:43:27.018Z,6.75
2023-02-22T04:46:36.863Z,6.73
2023-02-22T04:49:39.584Z,6.73
2023-02-22T04:52:42.796Z,6.77
2023-02-22T04:55:47.257Z,6.75
2023-02-22T04:58:49.891Z,6.71
2023-02-22T05:01:52.756Z,6.74
2023-02-22T05:04:55.747Z,6.75
2023-02-22T05:07:58.251Z,6.70
2023-02-22T05:11:01.167Z,6.67
2023-02-22T05:14:03.781Z,6.64
2023-02-22T05:17:06.413Z,6.64
2023-02-22T05:20:36.763Z,6.66
2023-02-22T05:23:39.797Z,6.67
2023-02-22T05:26:46.000Z,6.64
2023-02-22T05:29:48.555Z,6.57
2023-02-22T05:32:51.877Z,6.62
2023-02-22T05:35:56.639Z,6.67
2023-02-22T05:39:01.022Z,6.68
2023-02-22T05:42:04.480Z,6.67
2023-02-22T05:45:08.510Z,6.76
2023-02-22T05:48:13.337Z,6.69
2023-02-22T05:51:16.374Z,6.73
2023-02-22T05:54:19.321Z,6.75
2023-02-22T05:57:22.195Z,6.74
2023-02-22T06:00:30.435Z,6.72
2023-02-22T06:03:33.207Z,6.77
2023-02-22T06:06:35.792Z,6.84
2023-02-22T06:09:38.508Z,6.92
2023-02-22T06:12:41.887Z,6.95
2023-02-22T06:15:44.508Z,6.97
2023-02-22T06:18:48.097Z,7.11
2023-02-22T06:21:56.380Z,7.16
2023-02-22T06:24:59.486Z,7.24
2023-02-22T06:28:02.654Z,7.20
2023-02-22T06:31:05.504Z,7.26
2023-02-22T06:34:08.412Z,7.35
2023-02-22T06:37:11.018Z,7.42
2023-02-22T06:40:14.186Z,7.48
2023-02-22T06:43:17.009Z,7.57
2023-02-22T06:46:21.333Z,7.66
2023-02-22T06:49:23.986Z,7.70
2023-02-22T06:52:26.930Z,7.60
2023-02-22T06:55:32.078Z,7.66
2023-02-22T06:58:34.694Z,7.54
2023-02-22T07:01:37.492Z,7.32
2023-02-22T07:04:43.316Z,7.30
2023-02-22T07:07:47.786Z,7.28
2023-02-22T07:10:50.791Z,7.24
2023-02-22T07:13:53.618Z,7.37
2023-02-22T07:16:56.182Z,7.36
2023-02-22T07:19:58.767Z,7.51
2023-02-22T07:23:01.632Z,7.63
2023-02-22T07:26:05.804Z,7.74
2023-02-22T07:29:09.012Z,7.79
2023-02-22T07:32:12.383Z,7.83
2023-02-22T07:35:22.625Z,7.93
2023-02-22T07:38:25.282Z,7.92
2023-02-22T07:41:27.872Z,7.82
2023-02-22T07:44:30.639Z,7.86
2023-02-22T07:47:33.184Z,7.91
2023-02-22T07:50:36.478Z,8.04
2023-02-22T07:53:39.183Z,8.18
2023-02-22T07:56:46.683Z,8.19
2023-02-22T07:59:49.354Z,8.14
2023-02-22T08:02:52.428Z,8.31
2023-02-22T08:05:57.526Z,8.37
2023-02-22T08:09:00.118Z,8.43
2023-02-22T08:12:02.831Z,8.43
2023-02-22T08:15:07.313Z,8.58
2023-02-22T08:18:15.428Z,8.77
2023-02-22T08:21:18.543Z,8.82
2023-02-22T08:24:21.431Z,8.78
2023-02-22T08:27:29.034Z,8.88
2023-02-22T08:30:35.084Z,9.05
2023-02-22T08:33:37.939Z,9.13
2023-02-22T08:36:42.767Z,9.17
2023-02-22T08:39:46.026Z,9.23
2023-02-22T08:42:48.636Z,9.24
2023-02-22T08:45:52.297Z,9.37
2023-02-22T08:48:55.060Z,9.49
2023-02-22T08:51:57.889Z,9.64
2023-02-22T08:55:01.091Z,9.56
2023-02-22T08:58:05.379Z,9.67
2023-02-22T09:01:08.434Z,9.90
2023-02-22T09:04:11.304Z,10.03
2023-02-22T09:07:14.732Z,10.11
2023-02-22T09:10:20.983Z,10.24
2023-02-22T09:13:23.804Z,10.49
2023-02-22T09:16:26.512Z,10.76
2023-02-22T09:19:29.289Z,10.72
2023-02-22T09:22:31.918Z,10.71
2023-02-22T09:25:34.671Z,10.82
2023-02-22T09:28:37.223Z,10.94
2023-02-22T09:31:41.024Z,10.96
2023-02-22T09:34:46.066Z,11.01
2023-02-22T09:37:48.646Z,11.07
2023-02-22T09:40:54.509Z,11.15
2023-02-22T09:44:21.414Z,10.40
2023-02-22T09:47:33.961Z,10.25
2023-02-22T09:50:42.641Z,9.90
2023-02-22T09:53:48.722Z,9.93
2023-02-22T09:56:55.761Z,9.72
2023-02-22T10:00:13.383Z,9.83
2023-02-22T10:03:23.125Z,9.93
2023-02-22T10:06:26.053Z,10.09
2023-02-22T10:09:30.741Z,10.04
2023-02-22T10:13:01.774Z,10.26
2023-02-22T10:16:21.527Z,10.34
2023-02-22T10:19:32.750Z,10.48
2023-02-22T10:23:22.954Z,10.35
2023-02-22T10:26:38.307Z,10.16
2023-02-22T10:29:51.260Z,10.28
2023-02-22T10:33:10.246Z,10.24
2023-02-22T10:36:24.513Z,10.11
2023-02-22T10:39:35.871Z,10.21
2023-02-22T10:42:38.894Z,10.39
2023-02-22T10:45:41.648Z,10.41
2023-02-22T10:48:47.382Z,10.22
2023-02-22T10:52:04.387Z,10.08
2023-02-22T10:55:15.589Z,9.83
2023-02-22T10:58:18.436Z,9.79
2023-02-22T11:01:36.815Z,10.03
2023-02-22T11:05:06.091Z,10.07
2023-02-22T11:08:22.597Z,10.02
2023-02-22T11:11:29.826Z,10.09
2023-02-22T11:14:32.477Z,10.02
2023-02-22T11:17:35.260Z,10.03
2023-02-22T11:20:39.839Z,10.00
2023-02-22T11:23:45.085Z,10.23
2023-02-22T11:26:49.845Z,10.39
2023-02-22T11:29:52.747Z,10.50
2023-02-22T11:33:01.419Z,10.54
2023-02-22T11:36:09.039Z,10.54
2023-02-22T11:39:24.668Z,10.72
2023-02-22T11:42:28.560Z,10.96
2023-02-22T11:45:31.241Z,10.94
2023-02-22T11:48:36.937Z,11.03
2023-02-22T11:51:58.116Z,11.19
2023-02-22T11:55:36.296Z,11.18
2023-02-22T11:58:50.728Z,11.37
2023-02-22T12:02:01.899Z,11.35
2023-02-22T12:05:29.159Z,11.34
2023-02-22T12:08:57.772Z,11.44
2023-02-22T12:12:22.002Z,11.60
2023-02-22T12:15:32.049Z,11.58
2023-02-22T12:18:47.018Z,11.81
2023-02-22T12:21:56.207Z,11.64
2023-02-22T12:25:09.671Z,11.79
2023-02-22T12:28:27.307Z,11.71
2023-02-22T12:32:05.436Z,11.78
2023-02-22T12:35:24.937Z,11.96
2023-02-22T12:38:44.581Z,11.66
2023-02-22T12:41:49.255Z,11.69
2023-02-22T12:44:55.965Z,11.69
2023-02-22T12:48:21.858Z,11.90
2023-02-22T12:51:39.871Z,11.76
2023-02-22T12:54:56.439Z,11.72
2023-02-22T12:58:14.302Z,11.91
2023-02-22T13:01:20.697Z,11.84
2023-02-22T13:04:23.507Z,11.65
2023-02-22T13:07:32.142Z,11.58
2023-02-22T13:10:46.932Z,11.51
2023-02-22T13:14:31.589Z,11.47
2023-02-22T13:17:43.444Z,11.45
2023-02-22T13:21:09.813Z,11.29
2023-02-22T13:24:46.406Z,11.06
2023-02-22T13:27:58.464Z,11.04
2023-02-22T13:31:20.316Z,11.23
2023-02-22T13:34:30.755Z,11.12
2023-02-22T13:37:35.670Z,11.20
2023-02-22T13:41:06.228Z,11.06
2023-02-22T13:44:38.314Z,11.08
2023-02-22T13:48:24.590Z,11.13
2023-02-22T13:51:39.700Z,11.06
2023-02-22T13:54:46.432Z,10.99
2023-02-22T13:57:51.860Z,10.89
2023-02-22T14:00:57.323Z,11.04
2023-02-22T14:04:20.179Z,10.98
2023-02-22T14:07:22.910Z,11.01
2023-02-22T14:10:44.569Z,10.90
2023-02-22T14:13:58.285Z,10.97
2023-02-22T14:17:18.123Z,10.94
2023-02-22T14:20:30.677Z,10.91
2023-02-22T14:23:44.944Z,10.84
2023-02-22T14:27:05.617Z,10.63
2023-02-22T14:30:32.180Z,10.90
2023-02-22T14:34:08.009Z,10.90
2023-02-22T14:37:26.481Z,10.98
2023-02-22T14:40:35.041Z,10.93
2023-02-22T14:43:38.372Z,10.82
2023-02-22T14:46:43.124Z,10.75
2023-02-22T14:49:48.396Z,10.75
2023-02-22T14:53:15.295Z,10.71
2023-02-22T14:56:25.927Z,10.67
2023-02-22T14:59:29.004Z,10.64
2023-02-22T15:02:39.118Z,10.53
2023-02-22T15:05:42.086Z,10.64
2023-02-22T15:08:49.963Z,10.59
2023-02-22T15:11:55.482Z,10.55
2023-02-22T15:15:22.228Z,10.54
2023-02-22T15:18:33.178Z,10.47
2023-02-22T15:21:35.912Z,10.41
2023-02-22T15:24:38.598Z,10.50
2023-02-22T15:27:46.128Z,10.43
2023-02-22T15:30:48.982Z,10.46
2023-02-22T15:33:53.441Z,10.39
2023-02-22T15:36:58.265Z,10.36
2023-02-22T15:40:15.941Z,10.21
2023-02-22T15:43:24.532Z,10.25
2023-02-22T15:46:27.442Z,10.27
2023-02-22T15:49:34.429Z,10.18
2023-02-22T15:52:37.352Z,10.05
2023-02-22T15:55:43.968Z,10.03
2023-02-22T15:58:47.967Z,9.93
2023-02-22T16:01:51.911Z,9.88
2023-02-22T16:05:10.006Z,9.77
2023-02-22T16:08:21.952Z,9.80
2023-02-22T16:11:32.175Z,9.73
2023-02-22T16:14:34.822Z,9.72
2023-02-22T16:17:52.632Z,9.68
2023-02-22T16:21:23.137Z,9.60
2023-02-22T16:24:31.502Z,9.58
2023-02-22T16:27:47.740Z,9.43
2023-02-22T16:30:57.538Z,9.30
2023-02-22T16:34:01.577Z,9.25
2023-02-22T16:37:04.367Z,9.18
2023-02-22T16:40:14.229Z,8.98
2023-02-22T16:43:22.918Z,8.98
2023-02-22T16:46:25.953Z,8.87
2023-02-22T16:49:29.359Z,8.85
2023-02-22T16:52:32.097Z,8.82
2023-02-22T16:55:37.070Z,8.64
2023-02-22T16:58:41.718Z,8.48
2023-02-22T17:01:44.581Z,8.44
2023-02-22T17:04:50.130Z,8.36
2023-02-22T17:07:53.026Z,7.98
2023-02-22T17:10:57.424Z,8.20
2023-02-22T17:14:00.555Z,8.17
2023-02-22T17:17:04.024Z,8.30
2023-02-22T17:20:11.868Z,8.25
2023-02-22T17:23:14.633Z,8.20
2023-02-22T17:26:18.078Z,8.10
2023-02-22T17:29:20.870Z,7.86
2023-02-22T17:32:23.693Z,7.63
2023-02-22T17:35:27.331Z,7.56
2023-02-22T17:38:30.909Z,7.53
2023-02-22T17:41:33.748Z,7.60
2023-02-22T17:44:36.815Z,7.63
2023-02-22T17:47:43.240Z,7.57
2023-02-22T17:50:48.469Z,7.46
2023-02-22T17:53:52.309Z,7.45
2023-02-22T17:56:58.211Z,7.36
2023-02-22T18:00:02.135Z,7.33
2023-02-22T18:03:06.776Z,7.25
2023-02-22T18:06:09.463Z,7.22
2023-02-22T18:09:12.366Z,7.13
2023-02-22T18:12:15.330Z,6.94
2023-02-22T18:15:18.281Z,6.82
2023-02-22T18:18:22.488Z,6.65
2023-02-22T18:21:27.111Z,6.59
2023-02-22T18:24:34.732Z,6.61
2023-02-22T18:27:38.217Z,6.75
2023-02-22T18:30:41.749Z,6.65
2023-02-22T18:33:46.038Z,6.66
2023-02-22T18:36:51.318Z,6.32
2023-02-22T18:39:56.102Z,6.31
2023-02-22T18:42:59.896Z,6.32
2023-02-22T18:46:16.861Z,6.36
2023-02-22T18:49:21.055Z,6.14
2023-02-22T18:52:24.712Z,6.23
2023-02-22T18:55:27.657Z,6.27
2023-02-22T18:58:33.066Z,6.19
2023-02-22T19:01:39.024Z,6.10
2023-02-22T19:04:44.921Z,6.18
2023-02-22T19:07:48.996Z,6.20
2023-02-22T19:10:51.937Z,6.21
2023-02-22T19:13:58.239Z,6.20
2023-02-22T19:17:02.882Z,6.22
2023-02-22T19:20:07.563Z,6.05
2023-02-22T19:23:10.759Z,5.84
2023-02-22T19:26:24.282Z,5.63
2023-02-22T19:29:27.818Z,5.69
2023-02-22T19:32:33.929Z,5.74
2023-02-22T19:35:37.804Z,5.48
2023-02-22T19:38:41.790Z,5.38
2023-02-22T19:41:45.106Z,5.33
2023-02-22T19:44:48.644Z,5.31
2023-02-22T19:47:56.006Z,5.16
2023-02-22T19:51:09.538Z,5.12
2023-02-22T19:54:17.884Z,5.06
2023-02-22T19:57:23.795Z,4.99
2023-02-22T20:00:28.011Z,5.02
2023-02-22T20:03:35.242Z,4.98
2023-02-22T20:06:43.276Z,5.03
2023-02-22T20:09:46.296Z,5.02
2023-02-22T20:12:50.378Z,4.98
2023-02-22T20:15:54.689Z,4.98
2023-02-22T20:18:57.513Z,4.87
2023-02-22T20:22:00.750Z,4.76
2023-02-22T20:25:03.831Z,4.72
2023-02-22T20:28:07.800Z,4.72
2023-02-22T20:31:14.129Z,4.64
2023-02-22T20:34:17.520Z,4.63
2023-02-22T20:37:21.752Z,4.62
2023-02-22T20:40:24.789Z,4.64
2023-02-22T20:43:27.748Z,4.81
2023-02-22T20:46:31.996Z,4.88
2023-02-22T20:49:36.173Z,4.81
2023-02-22T20:52:39.317Z,4.61
2023-02-22T20:55:51.612Z,4.51
2023-02-22T20:58:57.100Z,4.42
2023-02-22T21:02:00.626Z,4.36
2023-02-22T21:05:03.611Z,4.39
2023-02-22T21:08:07.661Z,4.34
2023-02-22T21:11:15.210Z,4.39
2023-02-22T21:14:20.273Z,4.36
2023-02-22T21:17:28.976Z,4.36
2023-02-22T21:20:31.859Z,4.39
2023-02-22T21:23:34.620Z,4.37
2023-02-22T21:26:37.344Z,4.46
2023-02-22T21:29:40.126Z,4.59
2023-02-22T21:32:42.926Z,4.63
2023-02-22T21:35:49.608Z,4.64
2023-02-22T21:38:55.513Z,4.56
2023-02-22T21:42:00.542Z,4.53
2023-02-22T21:45:03.669Z,4.63
2023-02-22T21:48:06.569Z,4.67
2023-02-22T21:51:14.589Z,4.77
2023-02-22T21:54:17.276Z,4.85
2023-02-22T21:57:20.173Z,4.83
2023-02-22T22:00:29.421Z,4.95
2023-02-22T22:03:32.498Z,5.06
2023-02-22T22:06:36.144Z,5.13
2023-02-22T22:09:41.613Z,5.12
2023-02-22T22:12:47.325Z,5.06
2023-02-22T22:15:50.856Z,5.09
2023-02-22T22:18:53.868Z,5.10
2023-02-22T22:21:59.977Z,5.05
2023-02-22T22:25:03.838Z,5.13
2023-02-22T22:28:11.526Z,5.16
2023-02-22T22:31:15.897Z,5.20
2023-02-22T22:34:19.827Z,5.18
2023-02-22T22:37:22.876Z,5.18
2023-02-22T22:40:25.709Z,5.18
2023-02-22T22:43:29.543Z,5.16
2023-02-22T22:46:32.277Z,5.12
2023-02-22T22:49:40.561Z,5.11
2023-02-22T22:52:43.539Z,5.04
2023-02-22T22:55:46.468Z,4.97
2023-02-22T22:58:51.886Z,4.91
2023-02-22T23:01:56.800Z,4.88
2023-02-22T23:04:59.577Z,4.92
2023-02-22T23:08:05.016Z,4.92
2023-02-22T23:11:09.523Z,4.90
2023-02-22T23:14:21.609Z,4.88
2023-02-22T23:17:31.718Z,4.92
2023-02-22T23:20:39.145Z,4.92
2023-02-22T23:23:41.760Z,4.91
2023-02-22T23:26:50.631Z,4.91
2023-02-22T23:29:57.519Z,4.95
2023-02-22T23:33:03.133Z,4.93
2023-02-22T23:36:12.716Z,5.01
2023-02-22T23:39:20.827Z,5.09
2023-02-22T23:42:23.569Z,5.13
2023-02-22T23:45:27.859Z,5.23
2023-02-22T23:48:30.475Z,5.28
2023-02-22T23:51:39.581Z,5.26
2023-02-22T23:54:46.700Z,5.19
2023-02-22T23:57:49.269Z,5.28
